sensor_id;sensor_type;location;lat;lon;timestamp;pressure;altitude;pressure_sealevel;temperature
68510;BMP180;55512;50.102;19.958;2022-10-16T00:00:41;98920.60;;;14.86
68510;BMP180;55512;50.102;19.958;2022-10-16T00:03:07;98920.60;;;14.86
68510;BMP180;55512;50.102;19.958;2022-10-16T00:05:42;98921.80;;;14.80
68510;BMP180;55512;50.102;19.958;2022-10-16T00:08:10;98927.00;;;14.80
68510;BMP180;55512;50.102;19.958;2022-10-16T00:10:36;98924.00;;;14.80
68510;BMP180;55512;50.102;19.958;2022-10-16T00:13:02;98927.60;;;14.80
68510;BMP180;55512;50.102;19.958;2022-10-16T00:15:27;98926.00;;;14.80
68510;BMP180;55512;50.102;19.958;2022-10-16T00:17:53;98928.20;;;14.80
68510;BMP180;55512;50.102;19.958;2022-10-16T00:20:18;98933.40;;;14.80
68510;BMP180;55512;50.102;19.958;2022-10-16T00:22:43;98934.80;;;14.78
68510;BMP180;55512;50.102;19.958;2022-10-16T00:25:09;98942.00;;;14.80
68510;BMP180;55512;50.102;19.958;2022-10-16T00:27:35;98943.60;;;14.80
68510;BMP180;55512;50.102;19.958;2022-10-16T00:30:00;98939.00;;;14.80
68510;BMP180;55512;50.102;19.958;2022-10-16T00:32:26;98943.20;;;14.80
68510;BMP180;55512;50.102;19.958;2022-10-16T00:34:51;98948.60;;;14.80
68510;BMP180;55512;50.102;19.958;2022-10-16T00:37:20;98945.20;;;14.80
68510;BMP180;55512;50.102;19.958;2022-10-16T00:39:46;98945.40;;;14.80
68510;BMP180;55512;50.102;19.958;2022-10-16T00:42:17;98945.00;;;14.80
68510;BMP180;55512;50.102;19.958;2022-10-16T00:44:52;98952.00;;;14.80
68510;BMP180;55512;50.102;19.958;2022-10-16T00:47:42;98955.80;;;14.80
68510;BMP180;55512;50.102;19.958;2022-10-16T00:50:34;98958.60;;;14.80
68510;BMP180;55512;50.102;19.958;2022-10-16T00:53:02;98957.00;;;14.78
68510;BMP180;55512;50.102;19.958;2022-10-16T00:55:28;98956.40;;;14.78
68510;BMP180;55512;50.102;19.958;2022-10-16T00:57:56;98952.40;;;14.80
68510;BMP180;55512;50.102;19.958;2022-10-16T01:00:26;98953.00;;;14.80
68510;BMP180;55512;50.102;19.958;2022-10-16T01:03:02;98954.20;;;14.80
68510;BMP180;55512;50.102;19.958;2022-10-16T01:05:41;98959.20;;;14.80
68510;BMP180;55512;50.102;19.958;2022-10-16T01:08:18;98958.20;;;14.80
68510;BMP180;55512;50.102;19.958;2022-10-16T01:11:09;98964.60;;;14.80
68510;BMP180;55512;50.102;19.958;2022-10-16T01:13:46;98961.40;;;14.80
68510;BMP180;55512;50.102;19.958;2022-10-16T01:16:28;98960.60;;;14.80
68510;BMP180;55512;50.102;19.958;2022-10-16T01:19:25;98967.20;;;14.80
68510;BMP180;55512;50.102;19.958;2022-10-16T01:21:53;98963.20;;;14.80
68510;BMP180;55512;50.102;19.958;2022-10-16T01:27:26;98961.20;;;14.80
68510;BMP180;55512;50.102;19.958;2022-10-16T01:33:04;98963.00;;;14.80
68510;BMP180;55512;50.102;19.958;2022-10-16T01:35:39;98963.80;;;14.76
68510;BMP180;55512;50.102;19.958;2022-10-16T01:38:14;98965.40;;;14.78
68510;BMP180;55512;50.102;19.958;2022-10-16T01:40:47;98966.60;;;14.80
68510;BMP180;55512;50.102;19.958;2022-10-16T01:43:24;98963.60;;;14.72
68510;BMP180;55512;50.102;19.958;2022-10-16T01:45:52;98965.20;;;14.72
68510;BMP180;55512;50.102;19.958;2022-10-16T01:48:20;98967.20;;;14.70
68510;BMP180;55512;50.102;19.958;2022-10-16T01:51:02;98968.80;;;14.70
68510;BMP180;55512;50.102;19.958;2022-10-16T01:53:30;98970.60;;;14.70
68510;BMP180;55512;50.102;19.958;2022-10-16T01:55:58;98975.20;;;14.70
68510;BMP180;55512;50.102;19.958;2022-10-16T01:58:27;98973.00;;;14.70
68510;BMP180;55512;50.102;19.958;2022-10-16T02:00:56;98973.80;;;14.70
68510;BMP180;55512;50.102;19.958;2022-10-16T02:03:22;98976.20;;;14.70
68510;BMP180;55512;50.102;19.958;2022-10-16T02:05:56;98980.20;;;14.70
68510;BMP180;55512;50.102;19.958;2022-10-16T02:08:26;98980.00;;;14.62
68510;BMP180;55512;50.102;19.958;2022-10-16T02:10:55;98975.40;;;14.64
68510;BMP180;55512;50.102;19.958;2022-10-16T02:13:30;98971.80;;;14.60
68510;BMP180;55512;50.102;19.958;2022-10-16T02:15:56;98975.40;;;14.60
68510;BMP180;55512;50.102;19.958;2022-10-16T02:18:22;98974.00;;;14.60
68510;BMP180;55512;50.102;19.958;2022-10-16T02:20:58;98977.20;;;14.60
68510;BMP180;55512;50.102;19.958;2022-10-16T02:24:12;98974.00;;;14.60
68510;BMP180;55512;50.102;19.958;2022-10-16T02:26:48;98973.60;;;14.60
68510;BMP180;55512;50.102;19.958;2022-10-16T02:29:21;98972.60;;;14.54
68510;BMP180;55512;50.102;19.958;2022-10-16T02:31:54;98973.80;;;14.56
68510;BMP180;55512;50.102;19.958;2022-10-16T02:34:22;98977.40;;;14.50
68510;BMP180;55512;50.102;19.958;2022-10-16T02:36:50;98978.20;;;14.50
68510;BMP180;55512;50.102;19.958;2022-10-16T02:39:18;98973.00;;;14.50
68510;BMP180;55512;50.102;19.958;2022-10-16T02:41:44;98975.20;;;14.50
68510;BMP180;55512;50.102;19.958;2022-10-16T02:44:10;98977.60;;;14.50
68510;BMP180;55512;50.102;19.958;2022-10-16T02:46:35;98977.40;;;14.50
68510;BMP180;55512;50.102;19.958;2022-10-16T02:49:01;98981.00;;;14.50
68510;BMP180;55512;50.102;19.958;2022-10-16T02:51:26;98978.60;;;14.46
68510;BMP180;55512;50.102;19.958;2022-10-16T02:53:52;98978.20;;;14.40
68510;BMP180;55512;50.102;19.958;2022-10-16T02:56:17;98972.60;;;14.40
68510;BMP180;55512;50.102;19.958;2022-10-16T02:58:42;98976.00;;;14.40
68510;BMP180;55512;50.102;19.958;2022-10-16T03:01:08;98979.00;;;14.40
68510;BMP180;55512;50.102;19.958;2022-10-16T03:03:33;98979.60;;;14.40
68510;BMP180;55512;50.102;19.958;2022-10-16T03:05:59;98986.40;;;14.30
68510;BMP180;55512;50.102;19.958;2022-10-16T03:08:24;98981.20;;;14.30
68510;BMP180;55512;50.102;19.958;2022-10-16T03:10:51;98983.80;;;14.30
68510;BMP180;55512;50.102;19.958;2022-10-16T03:13:17;98980.20;;;14.28
68510;BMP180;55512;50.102;19.958;2022-10-16T03:15:43;98982.20;;;14.20
68510;BMP180;55512;50.102;19.958;2022-10-16T03:18:09;98984.80;;;14.20
68510;BMP180;55512;50.102;19.958;2022-10-16T03:20:34;98984.60;;;14.20
68510;BMP180;55512;50.102;19.958;2022-10-16T03:22:59;98977.20;;;14.10
68510;BMP180;55512;50.102;19.958;2022-10-16T03:25:25;98978.20;;;14.10
68510;BMP180;55512;50.102;19.958;2022-10-16T03:27:50;98978.20;;;14.10
68510;BMP180;55512;50.102;19.958;2022-10-16T03:30:16;98985.20;;;14.10
68510;BMP180;55512;50.102;19.958;2022-10-16T03:32:41;98990.60;;;14.10
68510;BMP180;55512;50.102;19.958;2022-10-16T03:35:08;98996.00;;;14.08
68510;BMP180;55512;50.102;19.958;2022-10-16T03:37:34;98996.20;;;14.00
68510;BMP180;55512;50.102;19.958;2022-10-16T03:39:59;99001.40;;;14.00
68510;BMP180;55512;50.102;19.958;2022-10-16T03:42:24;99006.40;;;14.00
68510;BMP180;55512;50.102;19.958;2022-10-16T03:44:50;99008.20;;;14.00
68510;BMP180;55512;50.102;19.958;2022-10-16T03:47:15;99013.20;;;14.00
68510;BMP180;55512;50.102;19.958;2022-10-16T03:49:41;99012.80;;;14.00
68510;BMP180;55512;50.102;19.958;2022-10-16T03:52:06;99016.40;;;13.92
68510;BMP180;55512;50.102;19.958;2022-10-16T03:54:31;99021.00;;;13.90
68510;BMP180;55512;50.102;19.958;2022-10-16T03:56:57;99026.40;;;13.98
68510;BMP180;55512;50.102;19.958;2022-10-16T03:59:22;99029.60;;;13.94
68510;BMP180;55512;50.102;19.958;2022-10-16T04:01:48;99031.80;;;13.98
68510;BMP180;55512;50.102;19.958;2022-10-16T04:04:13;99027.20;;;13.96
68510;BMP180;55512;50.102;19.958;2022-10-16T04:06:38;99032.00;;;13.94
68510;BMP180;55512;50.102;19.958;2022-10-16T04:09:04;99031.20;;;13.90
68510;BMP180;55512;50.102;19.958;2022-10-16T04:11:29;99039.00;;;13.90
68510;BMP180;55512;50.102;19.958;2022-10-16T04:13:54;99032.20;;;13.90
68510;BMP180;55512;50.102;19.958;2022-10-16T04:16:20;99036.80;;;13.90
68510;BMP180;55512;50.102;19.958;2022-10-16T04:18:45;99043.20;;;13.90
68510;BMP180;55512;50.102;19.958;2022-10-16T04:21:10;99038.80;;;13.90
68510;BMP180;55512;50.102;19.958;2022-10-16T04:23:36;99037.60;;;13.90
68510;BMP180;55512;50.102;19.958;2022-10-16T04:26:02;99034.40;;;13.86
68510;BMP180;55512;50.102;19.958;2022-10-16T04:28:28;99035.60;;;13.90
68510;BMP180;55512;50.102;19.958;2022-10-16T04:30:53;99035.80;;;13.84
68510;BMP180;55512;50.102;19.958;2022-10-16T04:33:19;99039.00;;;13.80
68510;BMP180;55512;50.102;19.958;2022-10-16T04:35:44;99035.00;;;13.80
68510;BMP180;55512;50.102;19.958;2022-10-16T04:38:09;99041.20;;;13.80
68510;BMP180;55512;50.102;19.958;2022-10-16T04:40:35;99042.20;;;13.80
68510;BMP180;55512;50.102;19.958;2022-10-16T04:43:03;99040.20;;;13.76
68510;BMP180;55512;50.102;19.958;2022-10-16T04:45:29;99037.40;;;13.70
68510;BMP180;55512;50.102;19.958;2022-10-16T04:47:58;99040.20;;;13.70
68510;BMP180;55512;50.102;19.958;2022-10-16T04:50:24;99039.80;;;13.70
68510;BMP180;55512;50.102;19.958;2022-10-16T04:52:50;99048.20;;;13.70
68510;BMP180;55512;50.102;19.958;2022-10-16T04:55:15;99046.00;;;13.68
68510;BMP180;55512;50.102;19.958;2022-10-16T04:57:41;99044.20;;;13.70
68510;BMP180;55512;50.102;19.958;2022-10-16T05:00:08;99041.40;;;13.60
68510;BMP180;55512;50.102;19.958;2022-10-16T05:02:34;99053.00;;;13.60
68510;BMP180;55512;50.102;19.958;2022-10-16T05:04:59;99059.60;;;13.60
68510;BMP180;55512;50.102;19.958;2022-10-16T05:07:24;99058.60;;;13.58
68510;BMP180;55512;50.102;19.958;2022-10-16T05:09:50;99055.00;;;13.50
68510;BMP180;55512;50.102;19.958;2022-10-16T05:12:15;99055.80;;;13.50
68510;BMP180;55512;50.102;19.958;2022-10-16T05:14:41;99058.40;;;13.50
68510;BMP180;55512;50.102;19.958;2022-10-16T05:17:06;99059.00;;;13.50
68510;BMP180;55512;50.102;19.958;2022-10-16T05:19:32;99055.40;;;13.50
68510;BMP180;55512;50.102;19.958;2022-10-16T05:21:57;99052.60;;;13.50
68510;BMP180;55512;50.102;19.958;2022-10-16T05:24:22;99044.80;;;13.50
68510;BMP180;55512;50.102;19.958;2022-10-16T05:26:48;99051.40;;;13.50
68510;BMP180;55512;50.102;19.958;2022-10-16T05:29:14;99060.00;;;13.50
68510;BMP180;55512;50.102;19.958;2022-10-16T05:31:39;99057.20;;;13.40
68510;BMP180;55512;50.102;19.958;2022-10-16T05:34:05;99062.60;;;13.40
68510;BMP180;55512;50.102;19.958;2022-10-16T05:36:30;99070.00;;;13.38
68510;BMP180;55512;50.102;19.958;2022-10-16T05:38:55;99069.40;;;13.40
68510;BMP180;55512;50.102;19.958;2022-10-16T05:41:21;99072.60;;;13.36
68510;BMP180;55512;50.102;19.958;2022-10-16T05:43:50;99067.20;;;13.36
68510;BMP180;55512;50.102;19.958;2022-10-16T05:46:16;99066.60;;;13.40
68510;BMP180;55512;50.102;19.958;2022-10-16T05:48:41;99069.60;;;13.40
68510;BMP180;55512;50.102;19.958;2022-10-16T05:51:10;99070.40;;;13.40
68510;BMP180;55512;50.102;19.958;2022-10-16T05:53:38;99067.20;;;13.40
68510;BMP180;55512;50.102;19.958;2022-10-16T05:56:06;99067.00;;;13.40
68510;BMP180;55512;50.102;19.958;2022-10-16T05:58:35;99065.00;;;13.40
68510;BMP180;55512;50.102;19.958;2022-10-16T06:01:09;99062.80;;;13.40
68510;BMP180;55512;50.102;19.958;2022-10-16T06:03:35;99068.60;;;13.40
68510;BMP180;55512;50.102;19.958;2022-10-16T06:06:27;99069.20;;;13.40
68510;BMP180;55512;50.102;19.958;2022-10-16T06:08:55;99071.60;;;13.44
68510;BMP180;55512;50.102;19.958;2022-10-16T06:11:25;99076.20;;;13.50
68510;BMP180;55512;50.102;19.958;2022-10-16T06:13:59;99084.20;;;13.50
68510;BMP180;55512;50.102;19.958;2022-10-16T06:16:36;99094.20;;;13.60
68510;BMP180;55512;50.102;19.958;2022-10-16T06:19:03;99099.20;;;13.60
68510;BMP180;55512;50.102;19.958;2022-10-16T06:21:31;99102.60;;;13.62
68510;BMP180;55512;50.102;19.958;2022-10-16T06:23:58;99109.40;;;13.70
68510;BMP180;55512;50.102;19.958;2022-10-16T06:26:27;99110.80;;;13.70
68510;BMP180;55512;50.102;19.958;2022-10-16T06:28:56;99118.00;;;13.80
68510;BMP180;55512;50.102;19.958;2022-10-16T06:31:22;99118.00;;;13.80
68510;BMP180;55512;50.102;19.958;2022-10-16T06:33:51;99122.80;;;13.80
68510;BMP180;55512;50.102;19.958;2022-10-16T06:36:17;99132.20;;;13.90
68510;BMP180;55512;50.102;19.958;2022-10-16T06:38:44;99133.60;;;13.90
68510;BMP180;55512;50.102;19.958;2022-10-16T06:41:13;99134.80;;;14.00
68510;BMP180;55512;50.102;19.958;2022-10-16T06:43:39;99139.00;;;14.10
68510;BMP180;55512;50.102;19.958;2022-10-16T06:46:09;99140.00;;;14.18
68510;BMP180;55512;50.102;19.958;2022-10-16T06:48:35;99145.60;;;14.20
68510;BMP180;55512;50.102;19.958;2022-10-16T06:51:16;99149.00;;;14.30
68510;BMP180;55512;50.102;19.958;2022-10-16T06:53:48;99157.00;;;14.34
68510;BMP180;55512;50.102;19.958;2022-10-16T06:56:18;99163.60;;;14.40
68510;BMP180;55512;50.102;19.958;2022-10-16T06:58:44;99161.20;;;14.50
68510;BMP180;55512;50.102;19.958;2022-10-16T07:01:11;99160.40;;;14.60
68510;BMP180;55512;50.102;19.958;2022-10-16T07:03:39;99161.40;;;14.60
68510;BMP180;55512;50.102;19.958;2022-10-16T07:06:07;99160.20;;;14.70
68510;BMP180;55512;50.102;19.958;2022-10-16T07:08:35;99167.40;;;14.74
68510;BMP180;55512;50.102;19.958;2022-10-16T07:11:07;99164.80;;;14.80
68510;BMP180;55512;50.102;19.958;2022-10-16T07:13:35;99163.00;;;14.86
68510;BMP180;55512;50.102;19.958;2022-10-16T07:16:14;99167.20;;;14.90
68510;BMP180;55512;50.102;19.958;2022-10-16T07:18:40;99168.60;;;15.00
68510;BMP180;55512;50.102;19.958;2022-10-16T07:21:12;99171.00;;;15.06
68510;BMP180;55512;50.102;19.958;2022-10-16T07:23:38;99174.80;;;15.10
68510;BMP180;55512;50.102;19.958;2022-10-16T07:26:05;99178.80;;;15.18
68510;BMP180;55512;50.102;19.958;2022-10-16T07:28:32;99176.20;;;15.20
68510;BMP180;55512;50.102;19.958;2022-10-16T07:31:10;99173.20;;;15.30
68510;BMP180;55512;50.102;19.958;2022-10-16T07:33:39;99176.40;;;15.36
68510;BMP180;55512;50.102;19.958;2022-10-16T07:36:05;99176.00;;;15.40
68510;BMP180;55512;50.102;19.958;2022-10-16T07:38:31;99176.40;;;15.50
68510;BMP180;55512;50.102;19.958;2022-10-16T07:41:05;99173.60;;;15.60
68510;BMP180;55512;50.102;19.958;2022-10-16T07:43:32;99175.80;;;15.60
68510;BMP180;55512;50.102;19.958;2022-10-16T07:45:58;99178.40;;;15.70
68510;BMP180;55512;50.102;19.958;2022-10-16T07:48:26;99182.20;;;15.70
68510;BMP180;55512;50.102;19.958;2022-10-16T07:50:52;99180.00;;;15.80
68510;BMP180;55512;50.102;19.958;2022-10-16T07:53:17;99184.20;;;15.88
68510;BMP180;55512;50.102;19.958;2022-10-16T07:55:43;99186.20;;;15.90
68510;BMP180;55512;50.102;19.958;2022-10-16T07:58:08;99183.60;;;16.00
68510;BMP180;55512;50.102;19.958;2022-10-16T08:00:36;99182.80;;;16.04
68510;BMP180;55512;50.102;19.958;2022-10-16T08:03:02;99183.00;;;16.10
68510;BMP180;55512;50.102;19.958;2022-10-16T08:05:30;99187.40;;;16.20
68510;BMP180;55512;50.102;19.958;2022-10-16T08:07:56;99194.40;;;16.20
68510;BMP180;55512;50.102;19.958;2022-10-16T08:10:26;99194.20;;;16.30
68510;BMP180;55512;50.102;19.958;2022-10-16T08:12:52;99197.60;;;16.30
68510;BMP180;55512;50.102;19.958;2022-10-16T08:15:18;99198.00;;;16.40
68510;BMP180;55512;50.102;19.958;2022-10-16T08:17:44;99201.00;;;16.40
68510;BMP180;55512;50.102;19.958;2022-10-16T08:20:11;99201.20;;;16.40
68510;BMP180;55512;50.102;19.958;2022-10-16T08:22:36;99203.20;;;16.50
68510;BMP180;55512;50.102;19.958;2022-10-16T08:25:02;99201.20;;;16.56
68510;BMP180;55512;50.102;19.958;2022-10-16T08:27:34;99198.80;;;16.60
68510;BMP180;55512;50.102;19.958;2022-10-16T08:29:59;99201.40;;;16.70
68510;BMP180;55512;50.102;19.958;2022-10-16T08:32:25;99203.60;;;16.70
68510;BMP180;55512;50.102;19.958;2022-10-16T08:34:50;99206.80;;;16.80
68510;BMP180;55512;50.102;19.958;2022-10-16T08:37:15;99208.60;;;16.90
68510;BMP180;55512;50.102;19.958;2022-10-16T08:39:41;99210.00;;;17.00
68510;BMP180;55512;50.102;19.958;2022-10-16T08:42:39;99212.60;;;17.02
68510;BMP180;55512;50.102;19.958;2022-10-16T08:51:18;99220.80;;;17.40
68510;BMP180;55512;50.102;19.958;2022-10-16T08:54:08;99223.80;;;17.50
68510;BMP180;55512;50.102;19.958;2022-10-16T08:56:39;99220.40;;;17.70
68510;BMP180;55512;50.102;19.958;2022-10-16T08:59:10;99221.80;;;17.84
68510;BMP180;55512;50.102;19.958;2022-10-16T09:01:50;99219.80;;;18.00
68510;BMP180;55512;50.102;19.958;2022-10-16T09:10:57;99229.40;;;18.58
68510;BMP180;55512;50.102;19.958;2022-10-16T09:13:35;99232.40;;;18.70
68510;BMP180;55512;50.102;19.958;2022-10-16T09:16:36;99233.00;;;18.80
68510;BMP180;55512;50.102;19.958;2022-10-16T09:19:28;99237.80;;;18.94
68510;BMP180;55512;50.102;19.958;2022-10-16T09:21:56;99240.20;;;19.04
68510;BMP180;55512;50.102;19.958;2022-10-16T09:24:26;99240.00;;;19.10
68510;BMP180;55512;50.102;19.958;2022-10-16T09:26:52;99242.80;;;19.20
68510;BMP180;55512;50.102;19.958;2022-10-16T09:29:20;99243.80;;;19.30
68510;BMP180;55512;50.102;19.958;2022-10-16T09:31:47;99246.80;;;19.40
68510;BMP180;55512;50.102;19.958;2022-10-16T09:34:34;99244.20;;;19.48
68510;BMP180;55512;50.102;19.958;2022-10-16T09:37:08;99244.20;;;19.58
68510;BMP180;55512;50.102;19.958;2022-10-16T09:39:50;99248.60;;;19.60
68510;BMP180;55512;50.102;19.958;2022-10-16T09:42:36;99241.40;;;19.70
68510;BMP180;55512;50.102;19.958;2022-10-16T09:45:03;99247.60;;;19.80
68510;BMP180;55512;50.102;19.958;2022-10-16T09:47:31;99241.80;;;19.90
68510;BMP180;55512;50.102;19.958;2022-10-16T09:50:18;99245.20;;;19.90
68510;BMP180;55512;50.102;19.958;2022-10-16T09:52:44;99248.20;;;20.00
68510;BMP180;55512;50.102;19.958;2022-10-16T09:55:17;99245.20;;;20.00
68510;BMP180;55512;50.102;19.958;2022-10-16T09:57:51;99248.20;;;20.10
68510;BMP180;55512;50.102;19.958;2022-10-16T10:00:17;99253.80;;;20.20
68510;BMP180;55512;50.102;19.958;2022-10-16T10:02:44;99254.60;;;20.20
68510;BMP180;55512;50.102;19.958;2022-10-16T10:05:26;99252.60;;;20.30
68510;BMP180;55512;50.102;19.958;2022-10-16T10:07:59;99254.40;;;20.40
68510;BMP180;55512;50.102;19.958;2022-10-16T10:10:31;99250.60;;;20.50
68510;BMP180;55512;50.102;19.958;2022-10-16T10:12:57;99249.80;;;20.60
68510;BMP180;55512;50.102;19.958;2022-10-16T10:15:24;99249.40;;;20.70
68510;BMP180;55512;50.102;19.958;2022-10-16T10:17:57;99258.00;;;20.82
68510;BMP180;55512;50.102;19.958;2022-10-16T10:20:35;99257.20;;;20.96
68510;BMP180;55512;50.102;19.958;2022-10-16T10:23:25;99255.60;;;21.10
68510;BMP180;55512;50.102;19.958;2022-10-16T10:26:18;99253.20;;;21.20
68510;BMP180;55512;50.102;19.958;2022-10-16T10:28:59;99258.40;;;21.30
68510;BMP180;55512;50.102;19.958;2022-10-16T10:31:45;99257.20;;;21.40
68510;BMP180;55512;50.102;19.958;2022-10-16T10:46:02;99259.00;;;21.78
68510;BMP180;55512;50.102;19.958;2022-10-16T10:51:45;99253.20;;;21.90
68510;BMP180;55512;50.102;19.958;2022-10-16T10:57:10;99254.00;;;22.04
68510;BMP180;55512;50.102;19.958;2022-10-16T11:02:28;99248.20;;;22.10
68510;BMP180;55512;50.102;19.958;2022-10-16T11:05:42;99245.40;;;22.10
68510;BMP180;55512;50.102;19.958;2022-10-16T11:08:34;99246.00;;;22.10
68510;BMP180;55512;50.102;19.958;2022-10-16T11:14:05;99248.20;;;22.06
68510;BMP180;55512;50.102;19.958;2022-10-16T11:17:18;99244.20;;;22.10
68510;BMP180;55512;50.102;19.958;2022-10-16T11:19:51;99247.80;;;22.00
68510;BMP180;55512;50.102;19.958;2022-10-16T11:22:33;99247.80;;;22.04
68510;BMP180;55512;50.102;19.958;2022-10-16T11:25:23;99247.20;;;22.00
68510;BMP180;55512;50.102;19.958;2022-10-16T11:28:11;99246.00;;;22.00
68510;BMP180;55512;50.102;19.958;2022-10-16T11:30:54;99246.00;;;22.00
68510;BMP180;55512;50.102;19.958;2022-10-16T11:36:19;99251.40;;;21.90
68510;BMP180;55512;50.102;19.958;2022-10-16T11:39:02;99248.40;;;21.90
68510;BMP180;55512;50.102;19.958;2022-10-16T11:44:54;99249.80;;;21.90
68510;BMP180;55512;50.102;19.958;2022-10-16T11:48:00;99243.60;;;21.90
68510;BMP180;55512;50.102;19.958;2022-10-16T11:50:54;99246.80;;;21.94
68510;BMP180;55512;50.102;19.958;2022-10-16T11:53:32;99244.80;;;22.00
68510;BMP180;55512;50.102;19.958;2022-10-16T11:56:00;99244.20;;;22.00
68510;BMP180;55512;50.102;19.958;2022-10-16T11:58:30;99248.20;;;22.00
68510;BMP180;55512;50.102;19.958;2022-10-16T12:04:06;99254.80;;;22.00
68510;BMP180;55512;50.102;19.958;2022-10-16T12:06:59;99254.60;;;21.90
68510;BMP180;55512;50.102;19.958;2022-10-16T12:09:36;99253.80;;;21.90
68510;BMP180;55512;50.102;19.958;2022-10-16T12:12:03;99253.20;;;21.90
68510;BMP180;55512;50.102;19.958;2022-10-16T12:14:37;99255.60;;;21.90
68510;BMP180;55512;50.102;19.958;2022-10-16T12:17:26;99255.40;;;22.00
68510;BMP180;55512;50.102;19.958;2022-10-16T12:20:02;99252.00;;;22.00
68510;BMP180;55512;50.102;19.958;2022-10-16T12:22:53;99256.80;;;22.00
68510;BMP180;55512;50.102;19.958;2022-10-16T12:25:33;99254.20;;;22.10
68510;BMP180;55512;50.102;19.958;2022-10-16T12:30:32;99259.00;;;22.20
68510;BMP180;55512;50.102;19.958;2022-10-16T12:33:19;99251.20;;;22.30
68510;BMP180;55512;50.102;19.958;2022-10-16T12:35:46;99255.00;;;22.40
68510;BMP180;55512;50.102;19.958;2022-10-16T12:38:21;99256.20;;;22.40
68510;BMP180;55512;50.102;19.958;2022-10-16T12:41:05;99256.00;;;22.50
68510;BMP180;55512;50.102;19.958;2022-10-16T12:43:46;99254.40;;;22.60
68510;BMP180;55512;50.102;19.958;2022-10-16T12:48:42;99257.00;;;22.70
68510;BMP180;55512;50.102;19.958;2022-10-16T12:51:40;99261.40;;;22.80
68510;BMP180;55512;50.102;19.958;2022-10-16T12:54:16;99262.60;;;22.80
68510;BMP180;55512;50.102;19.958;2022-10-16T12:57:07;99262.40;;;22.80
68510;BMP180;55512;50.102;19.958;2022-10-16T13:02:50;99266.60;;;22.80
68510;BMP180;55512;50.102;19.958;2022-10-16T13:05:45;99274.40;;;22.80
68510;BMP180;55512;50.102;19.958;2022-10-16T13:28:46;99283.80;;;22.70
68510;BMP180;55512;50.102;19.958;2022-10-16T13:31:22;99292.00;;;22.70
68510;BMP180;55512;50.102;19.958;2022-10-16T13:33:56;99292.80;;;22.70
68510;BMP180;55512;50.102;19.958;2022-10-16T13:36:28;99294.00;;;22.60
68510;BMP180;55512;50.102;19.958;2022-10-16T13:39:28;99296.60;;;22.60
68510;BMP180;55512;50.102;19.958;2022-10-16T13:44:26;99297.20;;;22.70
68510;BMP180;55512;50.102;19.958;2022-10-16T13:47:03;99295.00;;;22.80
68510;BMP180;55512;50.102;19.958;2022-10-16T13:49:28;99297.60;;;22.90
68510;BMP180;55512;50.102;19.958;2022-10-16T13:51:59;99304.00;;;22.90
68510;BMP180;55512;50.102;19.958;2022-10-16T13:54:27;99308.00;;;22.90
68510;BMP180;55512;50.102;19.958;2022-10-16T13:56:54;99312.80;;;22.90
68510;BMP180;55512;50.102;19.958;2022-10-16T13:59:26;99317.80;;;22.82
68510;BMP180;55512;50.102;19.958;2022-10-16T14:01:55;99325.20;;;22.80
68510;BMP180;55512;50.102;19.958;2022-10-16T14:04:22;99324.40;;;22.80
68510;BMP180;55512;50.102;19.958;2022-10-16T14:06:51;99324.80;;;22.80
68510;BMP180;55512;50.102;19.958;2022-10-16T14:09:25;99318.40;;;22.70
68510;BMP180;55512;50.102;19.958;2022-10-16T14:12:01;99321.00;;;22.70
68510;BMP180;55512;50.102;19.958;2022-10-16T14:14:35;99324.20;;;22.70
68510;BMP180;55512;50.102;19.958;2022-10-16T14:17:02;99325.40;;;22.70
68510;BMP180;55512;50.102;19.958;2022-10-16T14:19:30;99324.40;;;22.70
68510;BMP180;55512;50.102;19.958;2022-10-16T14:22:22;99326.00;;;22.70
68510;BMP180;55512;50.102;19.958;2022-10-16T14:24:49;99323.40;;;22.70
68510;BMP180;55512;50.102;19.958;2022-10-16T14:27:35;99316.80;;;22.74
68510;BMP180;55512;50.102;19.958;2022-10-16T14:30:16;99317.80;;;22.90
68510;BMP180;55512;50.102;19.958;2022-10-16T14:33:01;99319.40;;;23.20
68510;BMP180;55512;50.102;19.958;2022-10-16T14:35:36;99314.20;;;23.38
68510;BMP180;55512;50.102;19.958;2022-10-16T14:38:04;99315.60;;;25.66
68510;BMP180;55512;50.102;19.958;2022-10-16T14:40:36;99323.20;;;27.94
68510;BMP180;55512;50.102;19.958;2022-10-16T14:43:04;99318.60;;;30.04
68510;BMP180;55512;50.102;19.958;2022-10-16T14:45:33;99322.00;;;31.78
68510;BMP180;55512;50.102;19.958;2022-10-16T14:48:06;99328.40;;;33.32
68510;BMP180;55512;50.102;19.958;2022-10-16T14:50:40;99329.60;;;34.80
68510;BMP180;55512;50.102;19.958;2022-10-16T14:53:11;99330.00;;;35.86
68510;BMP180;55512;50.102;19.958;2022-10-16T14:55:38;99330.00;;;36.76
68510;BMP180;55512;50.102;19.958;2022-10-16T14:58:04;99332.80;;;37.46
68510;BMP180;55512;50.102;19.958;2022-10-16T15:00:30;99334.20;;;37.82
68510;BMP180;55512;50.102;19.958;2022-10-16T15:02:55;99338.20;;;38.30
68510;BMP180;55512;50.102;19.958;2022-10-16T15:05:27;99344.20;;;38.42
68510;BMP180;55512;50.102;19.958;2022-10-16T15:07:54;99349.20;;;37.90
68510;BMP180;55512;50.102;19.958;2022-10-16T15:10:23;99351.00;;;37.30
68510;BMP180;55512;50.102;19.958;2022-10-16T15:12:49;99354.40;;;36.36
68510;BMP180;55512;50.102;19.958;2022-10-16T15:15:43;99359.00;;;35.40
68510;BMP180;55512;50.102;19.958;2022-10-16T15:18:09;99370.40;;;34.08
68510;BMP180;55512;50.102;19.958;2022-10-16T15:20:38;99373.40;;;33.04
68510;BMP180;55512;50.102;19.958;2022-10-16T15:23:15;99372.80;;;31.94
68510;BMP180;55512;50.102;19.958;2022-10-16T15:25:51;99376.00;;;30.86
68510;BMP180;55512;50.102;19.958;2022-10-16T15:28:18;99371.60;;;30.04
68510;BMP180;55512;50.102;19.958;2022-10-16T15:30:45;99372.60;;;29.20
68510;BMP180;55512;50.102;19.958;2022-10-16T15:33:17;99371.60;;;28.46
68510;BMP180;55512;50.102;19.958;2022-10-16T15:35:47;99372.60;;;27.66
68510;BMP180;55512;50.102;19.958;2022-10-16T15:38:14;99379.60;;;27.02
68510;BMP180;55512;50.102;19.958;2022-10-16T15:40:40;99378.20;;;26.52
68510;BMP180;55512;50.102;19.958;2022-10-16T15:43:07;99377.20;;;26.06